sensor_id;sensor_type;location;lat;lon;timestamp;P1;durP1;ratioP1;P2;durP2;ratioP2
537;SDS011;254;48.524;8.926;2022-11-23T00:00:03;3.5;;;1.9;;
537;SDS011;254;48.524;8.926;2022-11-23T00:01:11;8.0;;;2.1;;
537;SDS011;254;48.524;8.926;2022-11-23T00:02:03;6.1;;;2.1;;
537;SDS011;254;48.524;8.926;2022-11-23T00:03:03;4.6;;;2.2;;
537;SDS011;254;48.524;8.926;2022-11-23T00:04:03;7.3;;;1.9;;
537;SDS011;254;48.524;8.926;2022-11-23T00:05:02;5.3;;;2.1;;
537;SDS011;254;48.524;8.926;2022-11-23T00:06:02;5.3;;;2.6;;
537;SDS011;254;48.524;8.926;2022-11-23T00:07:02;7.7;;;2.4;;
537;SDS011;254;48.524;8.926;2022-11-23T00:08:03;7.1;;;3.0;;
537;SDS011;254;48.524;8.926;2022-11-23T00:09:02;7.3;;;3.3;;
537;SDS011;254;48.524;8.926;2022-11-23T00:10:02;5.4;;;3.0;;
537;SDS011;254;48.524;8.926;2022-11-23T00:11:03;6.5;;;3.2;;
537;SDS011;254;48.524;8.926;2022-11-23T00:12:03;8.0;;;3.6;;
537;SDS011;254;48.524;8.926;2022-11-23T00:13:02;12.3;;;3.8;;
537;SDS011;254;48.524;8.926;2022-11-23T00:14:02;5.7;;;3.9;;
537;SDS011;254;48.524;8.926;2022-11-23T00:15:02;7.5;;;4.0;;
537;SDS011;254;48.524;8.926;2022-11-23T00:16:04;6.3;;;3.6;;
537;SDS011;254;48.524;8.926;2022-11-23T00:17:02;5.8;;;4.0;;
537;SDS011;254;48.524;8.926;2022-11-23T00:18:02;5.6;;;3.8;;
537;SDS011;254;48.524;8.926;2022-11-23T00:19:02;5.0;;;3.9;;
537;SDS011;254;48.524;8.926;2022-11-23T00:20:02;4.9;;;3.8;;
537;SDS011;254;48.524;8.926;2022-11-23T00:21:04;6.4;;;4.2;;
537;SDS011;254;48.524;8.926;2022-11-23T00:22:03;7.3;;;3.8;;
537;SDS011;254;48.524;8.926;2022-11-23T00:23:02;5.8;;;3.5;;
537;SDS011;254;48.524;8.926;2022-11-23T00:24:02;6.0;;;4.0;;
537;SDS011;254;48.524;8.926;2022-11-23T00:25:03;8.7;;;4.5;;
537;SDS011;254;48.524;8.926;2022-11-23T00:26:02;5.5;;;4.2;;
537;SDS011;254;48.524;8.926;2022-11-23T00:27:03;8.1;;;4.3;;
537;SDS011;254;48.524;8.926;2022-11-23T00:28:02;8.8;;;4.6;;
537;SDS011;254;48.524;8.926;2022-11-23T00:29:02;9.0;;;4.3;;
537;SDS011;254;48.524;8.926;2022-11-23T00:30:03;6.8;;;3.9;;
537;SDS011;254;48.524;8.926;2022-11-23T00:31:02;7.0;;;4.3;;
537;SDS011;254;48.524;8.926;2022-11-23T00:32:03;8.7;;;4.5;;
537;SDS011;254;48.524;8.926;2022-11-23T00:33:01;5.4;;;3.7;;
537;SDS011;254;48.524;8.926;2022-11-23T00:34:02;6.6;;;4.4;;
537;SDS011;254;48.524;8.926;2022-11-23T00:35:03;6.6;;;4.5;;
537;SDS011;254;48.524;8.926;2022-11-23T00:36:03;8.8;;;4.3;;
537;SDS011;254;48.524;8.926;2022-11-23T00:37:03;6.4;;;3.9;;
537;SDS011;254;48.524;8.926;2022-11-23T00:38:02;5.6;;;4.2;;
537;SDS011;254;48.524;8.926;2022-11-23T00:39:02;8.9;;;4.7;;
537;SDS011;254;48.524;8.926;2022-11-23T00:40:03;6.3;;;3.8;;
537;SDS011;254;48.524;8.926;2022-11-23T00:41:04;5.8;;;3.7;;
537;SDS011;254;48.524;8.926;2022-11-23T00:42:02;7.6;;;3.9;;
537;SDS011;254;48.524;8.926;2022-11-23T00:43:02;5.8;;;4.0;;
537;SDS011;254;48.524;8.926;2022-11-23T00:44:02;10.4;;;4.3;;
537;SDS011;254;48.524;8.926;2022-11-23T00:45:02;8.2;;;4.2;;
537;SDS011;254;48.524;8.926;2022-11-23T00:46:04;10.0;;;4.6;;
537;SDS011;254;48.524;8.926;2022-11-23T00:47:02;6.3;;;4.2;;
537;SDS011;254;48.524;8.926;2022-11-23T00:48:02;7.4;;;4.6;;
537;SDS011;254;48.524;8.926;2022-11-23T00:49:02;7.8;;;4.3;;
537;SDS011;254;48.524;8.926;2022-11-23T00:50:02;9.8;;;5.6;;
537;SDS011;254;48.524;8.926;2022-11-23T00:51:04;9.3;;;6.2;;
537;SDS011;254;48.524;8.926;2022-11-23T00:52:01;7.9;;;5.9;;
537;SDS011;254;48.524;8.926;2022-11-23T00:53:02;10.0;;;5.8;;
537;SDS011;254;48.524;8.926;2022-11-23T00:54:03;8.2;;;6.1;;
537;SDS011;254;48.524;8.926;2022-11-23T00:55:02;12.3;;;6.2;;
537;SDS011;254;48.524;8.926;2022-11-23T00:56:03;6.4;;;5.6;;
537;SDS011;254;48.524;8.926;2022-11-23T00:57:02;10.6;;;5.8;;
537;SDS011;254;48.524;8.926;2022-11-23T00:58:02;7.7;;;5.2;;
537;SDS011;254;48.524;8.926;2022-11-23T00:59:03;11.3;;;6.0;;
537;SDS011;254;48.524;8.926;2022-11-23T01:00:03;8.1;;;4.6;;
537;SDS011;254;48.524;8.926;2022-11-23T01:01:03;9.7;;;5.2;;
537;SDS011;254;48.524;8.926;2022-11-23T01:02:02;8.4;;;5.1;;
537;SDS011;254;48.524;8.926;2022-11-23T01:03:02;7.5;;;4.8;;
537;SDS011;254;48.524;8.926;2022-11-23T01:04:03;7.7;;;5.1;;
537;SDS011;254;48.524;8.926;2022-11-23T01:05:03;7.4;;;4.7;;
537;SDS011;254;48.524;8.926;2022-11-23T01:06:03;6.6;;;4.2;;
537;SDS011;254;48.524;8.926;2022-11-23T01:07:02;5.6;;;4.1;;
537;SDS011;254;48.524;8.926;2022-11-23T01:08:02;6.3;;;4.1;;
537;SDS011;254;48.524;8.926;2022-11-23T01:09:03;6.5;;;3.9;;
537;SDS011;254;48.524;8.926;2022-11-23T01:10:03;7.2;;;3.6;;
537;SDS011;254;48.524;8.926;2022-11-23T01:11:03;5.8;;;4.1;;
537;SDS011;254;48.524;8.926;2022-11-23T01:12:02;6.4;;;3.7;;
537;SDS011;254;48.524;8.926;2022-11-23T01:13:02;6.1;;;3.5;;
537;SDS011;254;48.524;8.926;2022-11-23T01:14:02;8.2;;;3.0;;
537;SDS011;254;48.524;8.926;2022-11-23T01:15:03;5.9;;;3.1;;
537;SDS011;254;48.524;8.926;2022-11-23T01:16:03;6.2;;;3.1;;
537;SDS011;254;48.524;8.926;2022-11-23T01:17:02;7.1;;;3.1;;
537;SDS011;254;48.524;8.926;2022-11-23T01:18:02;6.7;;;3.4;;
537;SDS011;254;48.524;8.926;2022-11-23T01:19:03;5.7;;;3.4;;
537;SDS011;254;48.524;8.926;2022-11-23T01:20:02;5.2;;;3.3;;
537;SDS011;254;48.524;8.926;2022-11-23T01:21:02;4.8;;;3.0;;
537;SDS011;254;48.524;8.926;2022-11-23T01:22:02;6.3;;;2.9;;
537;SDS011;254;48.524;8.926;2022-11-23T01:23:02;5.5;;;2.8;;
537;SDS011;254;48.524;8.926;2022-11-23T01:24:03;6.2;;;3.0;;
537;SDS011;254;48.524;8.926;2022-11-23T01:25:02;5.1;;;2.6;;
537;SDS011;254;48.524;8.926;2022-11-23T01:26:03;4.4;;;2.3;;
537;SDS011;254;48.524;8.926;2022-11-23T01:27:02;5.4;;;2.6;;
537;SDS011;254;48.524;8.926;2022-11-23T01:28:02;5.0;;;2.4;;
537;SDS011;254;48.524;8.926;2022-11-23T01:29:02;5.8;;;2.5;;
537;SDS011;254;48.524;8.926;2022-11-23T01:30:03;4.1;;;2.6;;
537;SDS011;254;48.524;8.926;2022-11-23T01:31:03;5.4;;;2.4;;
537;SDS011;254;48.524;8.926;2022-11-23T01:32:03;4.4;;;2.3;;
537;SDS011;254;48.524;8.926;2022-11-23T01:33:02;7.7;;;2.4;;
537;SDS011;254;48.524;8.926;2022-11-23T01:34:02;5.2;;;2.5;;
537;SDS011;254;48.524;8.926;2022-11-23T01:35:03;6.0;;;2.7;;
537;SDS011;254;48.524;8.926;2022-11-23T01:36:07;5.4;;;2.5;;
537;SDS011;254;48.524;8.926;2022-11-23T01:37:02;5.2;;;2.5;;
537;SDS011;254;48.524;8.926;2022-11-23T01:38:02;4.1;;;2.6;;
537;SDS011;254;48.524;8.926;2022-11-23T01:39:03;7.3;;;3.5;;
537;SDS011;254;48.524;8.926;2022-11-23T01:40:02;5.2;;;3.0;;
537;SDS011;254;48.524;8.926;2022-11-23T01:41:02;5.4;;;3.1;;
537;SDS011;254;48.524;8.926;2022-11-23T01:42:02;5.3;;;3.1;;
537;SDS011;254;48.524;8.926;2022-11-23T01:43:03;4.3;;;2.9;;
537;SDS011;254;48.524;8.926;2022-11-23T01:44:18;7.3;;;3.5;;
537;SDS011;254;48.524;8.926;2022-11-23T01:45:25;4.3;;;3.2;;
537;SDS011;254;48.524;8.926;2022-11-23T01:46:03;9.1;;;4.1;;
537;SDS011;254;48.524;8.926;2022-11-23T01:47:02;9.1;;;4.8;;
537;SDS011;254;48.524;8.926;2022-11-23T01:48:02;8.1;;;5.5;;
537;SDS011;254;48.524;8.926;2022-11-23T01:49:02;7.4;;;5.6;;
537;SDS011;254;48.524;8.926;2022-11-23T01:50:02;7.7;;;4.3;;
537;SDS011;254;48.524;8.926;2022-11-23T01:51:03;4.9;;;3.4;;
537;SDS011;254;48.524;8.926;2022-11-23T01:52:02;6.9;;;3.8;;
537;SDS011;254;48.524;8.926;2022-11-23T01:53:03;8.8;;;4.1;;
537;SDS011;254;48.524;8.926;2022-11-23T01:54:03;6.1;;;4.0;;
537;SDS011;254;48.524;8.926;2022-11-23T01:55:02;7.2;;;3.9;;
537;SDS011;254;48.524;8.926;2022-11-23T01:56:03;8.0;;;4.1;;
537;SDS011;254;48.524;8.926;2022-11-23T01:57:04;6.2;;;4.2;;
537;SDS011;254;48.524;8.926;2022-11-23T01:58:02;7.1;;;4.3;;
537;SDS011;254;48.524;8.926;2022-11-23T01:59:02;9.5;;;5.1;;
537;SDS011;254;48.524;8.926;2022-11-23T02:00:03;6.5;;;4.6;;
537;SDS011;254;48.524;8.926;2022-11-23T02:01:02;8.1;;;4.7;;
537;SDS011;254;48.524;8.926;2022-11-23T02:02:02;7.6;;;4.9;;
537;SDS011;254;48.524;8.926;2022-11-23T02:03:02;8.3;;;4.5;;
537;SDS011;254;48.524;8.926;2022-11-23T02:04:02;8.5;;;4.4;;
537;SDS011;254;48.524;8.926;2022-11-23T02:05:03;8.0;;;4.1;;
537;SDS011;254;48.524;8.926;2022-11-23T02:06:03;6.6;;;4.2;;
537;SDS011;254;48.524;8.926;2022-11-23T02:07:02;7.9;;;4.1;;
537;SDS011;254;48.524;8.926;2022-11-23T02:08:02;6.9;;;3.7;;
537;SDS011;254;48.524;8.926;2022-11-23T02:09:03;8.9;;;4.6;;
537;SDS011;254;48.524;8.926;2022-11-23T02:10:02;8.5;;;4.1;;
537;SDS011;254;48.524;8.926;2022-11-23T02:11:02;9.2;;;3.6;;
537;SDS011;254;48.524;8.926;2022-11-23T02:12:05;5.8;;;3.2;;
537;SDS011;254;48.524;8.926;2022-11-23T02:13:03;9.3;;;3.8;;
537;SDS011;254;48.524;8.926;2022-11-23T02:14:02;8.7;;;3.5;;
537;SDS011;254;48.524;8.926;2022-11-23T02:15:03;7.5;;;2.9;;
537;SDS011;254;48.524;8.926;2022-11-23T02:16:02;8.2;;;3.0;;
537;SDS011;254;48.524;8.926;2022-11-23T02:17:03;4.8;;;2.3;;
537;SDS011;254;48.524;8.926;2022-11-23T02:18:02;5.6;;;2.4;;
537;SDS011;254;48.524;8.926;2022-11-23T02:19:03;6.9;;;2.7;;
537;SDS011;254;48.524;8.926;2022-11-23T02:20:03;3.8;;;2.4;;
537;SDS011;254;48.524;8.926;2022-11-23T02:21:02;6.4;;;2.2;;
537;SDS011;254;48.524;8.926;2022-11-23T02:22:03;4.0;;;2.1;;
537;SDS011;254;48.524;8.926;2022-11-23T02:23:07;7.4;;;2.4;;
537;SDS011;254;48.524;8.926;2022-11-23T02:24:05;4.8;;;2.3;;
537;SDS011;254;48.524;8.926;2022-11-23T02:25:03;5.9;;;2.5;;
537;SDS011;254;48.524;8.926;2022-11-23T02:26:03;7.6;;;2.8;;
537;SDS011;254;48.524;8.926;2022-11-23T02:27:02;5.7;;;2.5;;
537;SDS011;254;48.524;8.926;2022-11-23T02:28:01;8.4;;;3.2;;
537;SDS011;254;48.524;8.926;2022-11-23T02:29:04;6.4;;;3.5;;
537;SDS011;254;48.524;8.926;2022-11-23T02:30:03;6.8;;;3.7;;
537;SDS011;254;48.524;8.926;2022-11-23T02:31:02;7.7;;;4.3;;
537;SDS011;254;48.524;8.926;2022-11-23T02:32:03;7.0;;;4.0;;
537;SDS011;254;48.524;8.926;2022-11-23T02:33:02;7.8;;;4.5;;
537;SDS011;254;48.524;8.926;2022-11-23T02:34:02;7.9;;;4.2;;
537;SDS011;254;48.524;8.926;2022-11-23T02:35:03;9.9;;;4.6;;
537;SDS011;254;48.524;8.926;2022-11-23T02:36:20;6.6;;;3.1;;
537;SDS011;254;48.524;8.926;2022-11-23T02:37:02;10.9;;;3.6;;
537;SDS011;254;48.524;8.926;2022-11-23T02:38:02;8.4;;;2.8;;
537;SDS011;254;48.524;8.926;2022-11-23T02:39:04;4.4;;;2.2;;
537;SDS011;254;48.524;8.926;2022-11-23T02:40:03;7.1;;;2.4;;
537;SDS011;254;48.524;8.926;2022-11-23T02:41:01;5.5;;;2.3;;
537;SDS011;254;48.524;8.926;2022-11-23T02:42:03;5.5;;;2.2;;
537;SDS011;254;48.524;8.926;2022-11-23T02:43:02;4.5;;;2.4;;
537;SDS011;254;48.524;8.926;2022-11-23T02:44:02;5.3;;;2.5;;
537;SDS011;254;48.524;8.926;2022-11-23T02:45:04;7.2;;;2.9;;
537;SDS011;254;48.524;8.926;2022-11-23T02:46:02;4.4;;;3.0;;
537;SDS011;254;48.524;8.926;2022-11-23T02:47:02;7.6;;;2.6;;
537;SDS011;254;48.524;8.926;2022-11-23T02:48:03;6.8;;;2.5;;
537;SDS011;254;48.524;8.926;2022-11-23T02:49:02;4.7;;;2.4;;
537;SDS011;254;48.524;8.926;2022-11-23T02:50:02;5.8;;;2.7;;
537;SDS011;254;48.524;8.926;2022-11-23T02:51:02;5.3;;;2.5;;
537;SDS011;254;48.524;8.926;2022-11-23T02:52:02;8.7;;;2.9;;
537;SDS011;254;48.524;8.926;2022-11-23T02:53:03;8.4;;;3.5;;
537;SDS011;254;48.524;8.926;2022-11-23T02:54:02;9.3;;;3.5;;
537;SDS011;254;48.524;8.926;2022-11-23T02:55:02;6.5;;;3.0;;
537;SDS011;254;48.524;8.926;2022-11-23T02:56:02;9.9;;;3.3;;
537;SDS011;254;48.524;8.926;2022-11-23T02:57:02;6.2;;;3.0;;
537;SDS011;254;48.524;8.926;2022-11-23T02:58:03;5.9;;;3.0;;
537;SDS011;254;48.524;8.926;2022-11-23T02:59:02;4.4;;;2.8;;
537;SDS011;254;48.524;8.926;2022-11-23T03:00:02;5.5;;;3.1;;
537;SDS011;254;48.524;8.926;2022-11-23T03:01:02;5.9;;;2.8;;
537;SDS011;254;48.524;8.926;2022-11-23T03:02:03;5.8;;;2.5;;
537;SDS011;254;48.524;8.926;2022-11-23T03:03:02;7.3;;;2.8;;
537;SDS011;254;48.524;8.926;2022-11-23T03:04:02;5.9;;;2.5;;
537;SDS011;254;48.524;8.926;2022-11-23T03:05:02;9.2;;;2.9;;
537;SDS011;254;48.524;8.926;2022-11-23T03:06:03;6.1;;;3.2;;
537;SDS011;254;48.524;8.926;2022-11-23T03:07:01;5.8;;;2.9;;
537;SDS011;254;48.524;8.926;2022-11-23T03:08:02;5.5;;;2.7;;
537;SDS011;254;48.524;8.926;2022-11-23T03:09:03;7.6;;;2.9;;
537;SDS011;254;48.524;8.926;2022-11-23T03:10:02;7.2;;;3.0;;
537;SDS011;254;48.524;8.926;2022-11-23T03:11:02;5.7;;;2.6;;
537;SDS011;254;48.524;8.926;2022-11-23T03:12:03;7.3;;;2.7;;
537;SDS011;254;48.524;8.926;2022-11-23T03:13:02;5.9;;;2.5;;
537;SDS011;254;48.524;8.926;2022-11-23T03:14:02;6.5;;;2.9;;
537;SDS011;254;48.524;8.926;2022-11-23T03:15:03;6.9;;;2.6;;
537;SDS011;254;48.524;8.926;2022-11-23T03:16:02;5.4;;;2.7;;
537;SDS011;254;48.524;8.926;2022-11-23T03:17:03;4.5;;;2.6;;
537;SDS011;254;48.524;8.926;2022-11-23T03:18:02;5.1;;;2.7;;
537;SDS011;254;48.524;8.926;2022-11-23T03:19:02;6.7;;;2.7;;
537;SDS011;254;48.524;8.926;2022-11-23T03:20:03;6.0;;;2.5;;
537;SDS011;254;48.524;8.926;2022-11-23T03:21:02;4.8;;;2.6;;
537;SDS011;254;48.524;8.926;2022-11-23T03:22:03;11.0;;;2.9;;
537;SDS011;254;48.524;8.926;2022-11-23T03:23:02;5.4;;;2.4;;
537;SDS011;254;48.524;8.926;2022-11-23T03:24:02;4.7;;;2.4;;
537;SDS011;254;48.524;8.926;2022-11-23T03:25:03;5.6;;;2.3;;
537;SDS011;254;48.524;8.926;2022-11-23T03:26:02;4.9;;;2.2;;
537;SDS011;254;48.524;8.926;2022-11-23T03:27:02;5.2;;;2.5;;
537;SDS011;254;48.524;8.926;2022-11-23T03:28:02;5.3;;;2.8;;
537;SDS011;254;48.524;8.926;2022-11-23T03:29:02;9.3;;;3.2;;
537;SDS011;254;48.524;8.926;2022-11-23T03:30:03;7.5;;;3.1;;
537;SDS011;254;48.524;8.926;2022-11-23T03:31:02;5.2;;;2.7;;
537;SDS011;254;48.524;8.926;2022-11-23T03:32:02;8.2;;;2.5;;
537;SDS011;254;48.524;8.926;2022-11-23T03:33:02;7.3;;;2.4;;
537;SDS011;254;48.524;8.926;2022-11-23T03:34:02;6.2;;;2.8;;
537;SDS011;254;48.524;8.926;2022-11-23T03:35:02;3.9;;;2.6;;
537;SDS011;254;48.524;8.926;2022-11-23T03:36:01;7.8;;;2.8;;
537;SDS011;254;48.524;8.926;2022-11-23T03:37:02;6.8;;;2.7;;
537;SDS011;254;48.524;8.926;2022-11-23T03:38:03;5.3;;;2.8;;
537;SDS011;254;48.524;8.926;2022-11-23T03:39:02;5.9;;;2.5;;
537;SDS011;254;48.524;8.926;2022-11-23T03:40:02;5.8;;;2.7;;
537;SDS011;254;48.524;8.926;2022-11-23T03:41:01;8.1;;;2.8;;
537;SDS011;254;48.524;8.926;2022-11-23T03:42:02;7.2;;;3.1;;
537;SDS011;254;48.524;8.926;2022-11-23T03:43:03;5.1;;;2.6;;
537;SDS011;254;48.524;8.926;2022-11-23T03:44:01;4.6;;;2.5;;
537;SDS011;254;48.524;8.926;2022-11-23T03:45:02;6.5;;;2.9;;
537;SDS011;254;48.524;8.926;2022-11-23T03:46:02;6.6;;;3.0;;
537;SDS011;254;48.524;8.926;2022-11-23T03:47:02;4.6;;;2.6;;
537;SDS011;254;48.524;8.926;2022-11-23T03:48:02;7.2;;;2.6;;
537;SDS011;254;48.524;8.926;2022-11-23T03:49:02;5.4;;;2.7;;
537;SDS011;254;48.524;8.926;2022-11-23T03:50:02;4.9;;;2.8;;
537;SDS011;254;48.524;8.926;2022-11-23T03:51:03;5.4;;;2.8;;
537;SDS011;254;48.524;8.926;2022-11-23T03:52:01;5.5;;;2.7;;
537;SDS011;254;48.524;8.926;2022-11-23T03:53:02;6.9;;;2.8;;
537;SDS011;254;48.524;8.926;2022-11-23T03:54:03;4.6;;;2.5;;
537;SDS011;254;48.524;8.926;2022-11-23T03:55:02;5.2;;;2.8;;
537;SDS011;254;48.524;8.926;2022-11-23T03:56:02;6.9;;;3.8;;
537;SDS011;254;48.524;8.926;2022-11-23T03:57:02;6.2;;;2.8;;
537;SDS011;254;48.524;8.926;2022-11-23T03:58:02;8.9;;;3.0;;
537;SDS011;254;48.524;8.926;2022-11-23T03:59:02;7.2;;;2.9;;
537;SDS011;254;48.524;8.926;2022-11-23T04:00:03;7.7;;;2.9;;
537;SDS011;254;48.524;8.926;2022-11-23T04:01:02;6.0;;;3.1;;
537;SDS011;254;48.524;8.926;2022-11-23T04:02:03;6.2;;;2.6;;
537;SDS011;254;48.524;8.926;2022-11-23T04:03:02;6.2;;;2.8;;
537;SDS011;254;48.524;8.926;2022-11-23T04:04:02;5.4;;;3.4;;
537;SDS011;254;48.524;8.926;2022-11-23T04:05:03;5.5;;;2.8;;
537;SDS011;254;48.524;8.926;2022-11-23T04:06:02;7.8;;;3.0;;
537;SDS011;254;48.524;8.926;2022-11-23T04:07:03;5.7;;;3.1;;
537;SDS011;254;48.524;8.926;2022-11-23T04:08:01;7.4;;;3.5;;
537;SDS011;254;48.524;8.926;2022-11-23T04:09:02;6.3;;;3.1;;
537;SDS011;254;48.524;8.926;2022-11-23T04:10:03;5.2;;;3.5;;
537;SDS011;254;48.524;8.926;2022-11-23T04:11:02;5.9;;;3.6;;
537;SDS011;254;48.524;8.926;2022-11-23T04:12:02;5.8;;;3.4;;
537;SDS011;254;48.524;8.926;2022-11-23T04:13:02;4.7;;;3.4;;
537;SDS011;254;48.524;8.926;2022-11-23T04:14:02;6.6;;;4.9;;
537;SDS011;254;48.524;8.926;2022-11-23T04:15:02;6.4;;;4.4;;
537;SDS011;254;48.524;8.926;2022-11-23T04:16:03;6.6;;;4.9;;
537;SDS011;254;48.524;8.926;2022-11-23T04:17:03;9.9;;;4.8;;
537;SDS011;254;48.524;8.926;2022-11-23T04:18:03;7.7;;;4.9;;
537;SDS011;254;48.524;8.926;2022-11-23T04:19:02;6.7;;;4.7;;
537;SDS011;254;48.524;8.926;2022-11-23T04:20:02;7.5;;;4.4;;
537;SDS011;254;48.524;8.926;2022-11-23T04:21:03;10.8;;;4.5;;
537;SDS011;254;48.524;8.926;2022-11-23T04:22:01;10.8;;;4.1;;
537;SDS011;254;48.524;8.926;2022-11-23T04:23:02;8.7;;;3.9;;
537;SDS011;254;48.524;8.926;2022-11-23T04:24:03;7.5;;;3.7;;
537;SDS011;254;48.524;8.926;2022-11-23T04:25:03;7.4;;;4.5;;
537;SDS011;254;48.524;8.926;2022-11-23T04:26:02;7.5;;;3.7;;
537;SDS011;254;48.524;8.926;2022-11-23T04:27:02;8.6;;;3.7;;
537;SDS011;254;48.524;8.926;2022-11-23T04:28:02;7.2;;;4.0;;
537;SDS011;254;48.524;8.926;2022-11-23T04:29:02;6.8;;;3.6;;
537;SDS011;254;48.524;8.926;2022-11-23T04:30:03;5.9;;;3.4;;
537;SDS011;254;48.524;8.926;2022-11-23T04:31:02;6.7;;;3.5;;
537;SDS011;254;48.524;8.926;2022-11-23T04:32:03;9.0;;;3.9;;
537;SDS011;254;48.524;8.926;2022-11-23T04:33:02;7.0;;;3.6;;
537;SDS011;254;48.524;8.926;2022-11-23T04:34:02;6.4;;;3.9;;
537;SDS011;254;48.524;8.926;2022-11-23T04:35:03;6.7;;;3.5;;
537;SDS011;254;48.524;8.926;2022-11-23T04:36:02;6.1;;;3.3;;
537;SDS011;254;48.524;8.926;2022-11-23T04:37:02;6.2;;;3.1;;
537;SDS011;254;48.524;8.926;2022-11-23T04:38:02;6.5;;;3.1;;
537;SDS011;254;48.524;8.926;2022-11-23T04:39:02;9.7;;;3.6;;
537;SDS011;254;48.524;8.926;2022-11-23T04:40:02;6.2;;;2.9;;
537;SDS011;254;48.524;8.926;2022-11-23T04:41:02;8.0;;;3.4;;
537;SDS011;254;48.524;8.926;2022-11-23T04:42:03;4.2;;;2.8;;
537;SDS011;254;48.524;8.926;2022-11-23T04:43:01;4.4;;;3.3;;
537;SDS011;254;48.524;8.926;2022-11-23T04:44:02;5.6;;;3.0;;
537;SDS011;254;48.524;8.926;2022-11-23T04:45:03;5.2;;;3.1;;
537;SDS011;254;48.524;8.926;2022-11-23T04:46:01;7.4;;;3.0;;
537;SDS011;254;48.524;8.926;2022-11-23T04:47:02;6.9;;;3.2;;
537;SDS011;254;48.524;8.926;2022-11-23T04:48:03;6.4;;;3.0;;
537;SDS011;254;48.524;8.926;2022-11-23T04:49:01;5.4;;;2.8;;
537;SDS011;254;48.524;8.926;2022-11-23T04:50:02;5.6;;;3.3;;
537;SDS011;254;48.524;8.926;2022-11-23T04:51:02;6.9;;;2.7;;
537;SDS011;254;48.524;8.926;2022-11-23T04:52:02;7.3;;;3.1;;
537;SDS011;254;48.524;8.926;2022-11-23T04:53:02;5.6;;;3.0;;
537;SDS011;254;48.524;8.926;2022-11-23T04:54:03;6.7;;;2.4;;
537;SDS011;254;48.524;8.926;2022-11-23T04:55:02;3.8;;;2.6;;
537;SDS011;254;48.524;8.926;2022-11-23T04:56:02;4.3;;;2.9;;
537;SDS011;254;48.524;8.926;2022-11-23T04:57:03;6.6;;;2.7;;
537;SDS011;254;48.524;8.926;2022-11-23T04:58:02;5.3;;;2.4;;
537;SDS011;254;48.524;8.926;2022-11-23T04:59:02;3.5;;;2.2;;
537;SDS011;254;48.524;8.926;2022-11-23T05:00:03;4.2;;;2.2;;
537;SDS011;254;48.524;8.926;2022-11-23T05:01:03;4.4;;;2.6;;
537;SDS011;254;48.524;8.926;2022-11-23T05:02:03;11.5;;;2.8;;
537;SDS011;254;48.524;8.926;2022-11-23T05:03:02;7.8;;;2.8;;
537;SDS011;254;48.524;8.926;2022-11-23T05:04:02;5.8;;;2.5;;
537;SDS011;254;48.524;8.926;2022-11-23T05:05:03;5.9;;;2.8;;
537;SDS011;254;48.524;8.926;2022-11-23T05:06:02;7.0;;;2.7;;
537;SDS011;254;48.524;8.926;2022-11-23T05:07:03;5.9;;;2.8;;
537;SDS011;254;48.524;8.926;2022-11-23T05:08:02;4.1;;;2.3;;
537;SDS011;254;48.524;8.926;2022-11-23T05:09:02;5.3;;;2.4;;
537;SDS011;254;48.524;8.926;2022-11-23T05:10:03;5.5;;;2.4;;
537;SDS011;254;48.524;8.926;2022-11-23T05:11:02;6.6;;;2.7;;
537;SDS011;254;48.524;8.926;2022-11-23T05:12:03;5.7;;;2.6;;
537;SDS011;254;48.524;8.926;2022-11-23T05:13:02;4.1;;;2.3;;
537;SDS011;254;48.524;8.926;2022-11-23T05:14:02;5.7;;;2.5;;
537;SDS011;254;48.524;8.926;2022-11-23T05:15:03;4.6;;;2.6;;
537;SDS011;254;48.524;8.926;2022-11-23T05:16:03;5.6;;;2.6;;
537;SDS011;254;48.524;8.926;2022-11-23T05:17:02;4.3;;;2.4;;
537;SDS011;254;48.524;8.926;2022-11-23T05:18:02;4.5;;;2.2;;
537;SDS011;254;48.524;8.926;2022-11-23T05:19:02;4.6;;;2.0;;
537;SDS011;254;48.524;8.926;2022-11-23T05:20:02;5.5;;;2.0;;
537;SDS011;254;48.524;8.926;2022-11-23T05:21:03;6.5;;;2.3;;
537;SDS011;254;48.524;8.926;2022-11-23T05:22:02;5.1;;;2.3;;
537;SDS011;254;48.524;8.926;2022-11-23T05:23:02;6.2;;;2.4;;
537;SDS011;254;48.524;8.926;2022-11-23T05:24:03;4.6;;;2.1;;
537;SDS011;254;48.524;8.926;2022-11-23T05:25:02;5.5;;;2.5;;
537;SDS011;254;48.524;8.926;2022-11-23T05:26:03;4.9;;;2.3;;
537;SDS011;254;48.524;8.926;2022-11-23T05:27:01;5.6;;;2.5;;
537;SDS011;254;48.524;8.926;2022-11-23T05:28:02;6.3;;;2.5;;
537;SDS011;254;48.524;8.926;2022-11-23T05:29:03;4.9;;;2.5;;
537;SDS011;254;48.524;8.926;2022-11-23T05:30:03;4.5;;;2.5;;
537;SDS011;254;48.524;8.926;2022-11-23T05:31:02;4.4;;;2.5;;
537;SDS011;254;48.524;8.926;2022-11-23T05:32:03;3.9;;;2.5;;
537;SDS011;254;48.524;8.926;2022-11-23T05:33:02;6.2;;;2.3;;
537;SDS011;254;48.524;8.926;2022-11-23T05:34:02;4.1;;;2.2;;
537;SDS011;254;48.524;8.926;2022-11-23T05:35:03;7.2;;;2.6;;
537;SDS011;254;48.524;8.926;2022-11-23T05:36:03;6.3;;;2.7;;
537;SDS011;254;48.524;8.926;2022-11-23T05:37:02;4.3;;;2.4;;
537;SDS011;254;48.524;8.926;2022-11-23T05:38:02;4.7;;;2.4;;
537;SDS011;254;48.524;8.926;2022-11-23T05:39:03;5.2;;;2.4;;
537;SDS011;254;48.524;8.926;2022-11-23T05:40:02;6.3;;;2.6;;
537;SDS011;254;48.524;8.926;2022-11-23T05:41:02;5.8;;;2.6;;
537;SDS011;254;48.524;8.926;2022-11-23T05:42:02;6.4;;;2.6;;
537;SDS011;254;48.524;8.926;2022-11-23T05:43:03;4.8;;;2.9;;
537;SDS011;254;48.524;8.926;2022-11-23T05:44:02;3.8;;;2.5;;
537;SDS011;254;48.524;8.926;2022-11-23T05:45:04;4.3;;;2.6;;
537;SDS011;254;48.524;8.926;2022-11-23T05:46:02;5.5;;;2.2;;
537;SDS011;254;48.524;8.926;2022-11-23T05:47:02;4.0;;;2.4;;
537;SDS011;254;48.524;8.926;2022-11-23T05:48:02;5.4;;;2.2;;
537;SDS011;254;48.524;8.926;2022-11-23T05:49:02;7.9;;;2.8;;
537;SDS011;254;48.524;8.926;2022-11-23T05:50:03;6.5;;;2.4;;
537;SDS011;254;48.524;8.926;2022-11-23T05:51:02;4.0;;;2.5;;
537;SDS011;254;48.524;8.926;2022-11-23T05:52:02;6.5;;;2.2;;
537;SDS011;254;48.524;8.926;2022-11-23T05:53:02;5.1;;;2.2;;
537;SDS011;254;48.524;8.926;2022-11-23T05:54:02;5.1;;;2.2;;
537;SDS011;254;48.524;8.926;2022-11-23T05:55:02;4.0;;;2.3;;
537;SDS011;254;48.524;8.926;2022-11-23T05:56:03;3.8;;;2.4;;
537;SDS011;254;48.524;8.926;2022-11-23T05:57:02;5.7;;;2.5;;
537;SDS011;254;48.524;8.926;2022-11-23T05:58:02;5.9;;;2.6;;
537;SDS011;254;48.524;8.926;2022-11-23T05:59:03;6.4;;;2.8;;
537;SDS011;254;48.524;8.926;2022-11-23T06:00:03;5.6;;;2.6;;
537;SDS011;254;48.524;8.926;2022-11-23T06:01:02;8.4;;;3.4;;
537;SDS011;254;48.524;8.926;2022-11-23T06:02:03;9.8;;;6.8;;
537;SDS011;254;48.524;8.926;2022-11-23T06:03:02;12.0;;;7.7;;
537;SDS011;254;48.524;8.926;2022-11-23T06:04:02;8.0;;;7.2;;
537;SDS011;254;48.524;8.926;2022-11-23T06:05:03;17.2;;;9.5;;
537;SDS011;254;48.524;8.926;2022-11-23T06:06:02;15.1;;;9.9;;
537;SDS011;254;48.524;8.926;2022-11-23T06:07:02;8.1;;;6.5;;
537;SDS011;254;48.524;8.926;2022-11-23T06:08:02;6.6;;;4.3;;
537;SDS011;254;48.524;8.926;2022-11-23T06:09:03;6.5;;;3.4;;
537;SDS011;254;48.524;8.926;2022-11-23T06:10:02;5.2;;;3.0;;
537;SDS011;254;48.524;8.926;2022-11-23T06:11:02;6.6;;;3.2;;
537;SDS011;254;48.524;8.926;2022-11-23T06:12:02;5.4;;;3.0;;
537;SDS011;254;48.524;8.926;2022-11-23T06:13:03;5.4;;;3.6;;
537;SDS011;254;48.524;8.926;2022-11-23T06:14:02;6.1;;;3.2;;
537;SDS011;254;48.524;8.926;2022-11-23T06:15:02;8.6;;;2.9;;
537;SDS011;254;48.524;8.926;2022-11-23T06:16:02;7.5;;;3.1;;
537;SDS011;254;48.524;8.926;2022-11-23T06:17:02;5.0;;;2.9;;
537;SDS011;254;48.524;8.926;2022-11-23T06:18:03;6.6;;;2.4;;
537;SDS011;254;48.524;8.926;2022-11-23T06:19:02;5.0;;;2.6;;
537;SDS011;254;48.524;8.926;2022-11-23T06:20:02;4.6;;;2.5;;
537;SDS011;254;48.524;8.926;2022-11-23T06:21:02;4.3;;;2.1;;
537;SDS011;254;48.524;8.926;2022-11-23T06:22:02;5.5;;;2.7;;
537;SDS011;254;48.524;8.926;2022-11-23T06:23:03;4.2;;;2.3;;
537;SDS011;254;48.524;8.926;2022-11-23T06:24:03;4.0;;;2.4;;
537;SDS011;254;48.524;8.926;2022-11-23T06:25:02;8.1;;;3.0;;
537;SDS011;254;48.524;8.926;2022-11-23T06:26:03;4.3;;;2.3;;
537;SDS011;254;48.524;8.926;2022-11-23T06:27:01;5.0;;;2.3;;
537;SDS011;254;48.524;8.926;2022-11-23T06:28:02;6.0;;;2.4;;
537;SDS011;254;48.524;8.926;2022-11-23T06:29:03;7.2;;;2.9;;
537;SDS011;254;48.524;8.926;2022-11-23T06:30:04;6.6;;;2.6;;
537;SDS011;254;48.524;8.926;2022-11-23T06:31:04;7.3;;;4.4;;
537;SDS011;254;48.524;8.926;2022-11-23T06:32:03;5.2;;;3.6;;
537;SDS011;254;48.524;8.926;2022-11-23T06:33:02;6.8;;;4.2;;
537;SDS011;254;48.524;8.926;2022-11-23T06:34:02;16.3;;;11.6;;
537;SDS011;254;48.524;8.926;2022-11-23T06:35:03;30.8;;;20.4;;
537;SDS011;254;48.524;8.926;2022-11-23T06:36:03;40.8;;;25.5;;
537;SDS011;254;48.524;8.926;2022-11-23T06:37:01;34.2;;;22.6;;